Time;durP1;ratioP1;P1;durP2;ratioP2;P2;SDS_P1;SDS_P2;PMS_P1;PMS_P2;Temp;Humidity;BMP_temperature;BMP_pressure;BME280_temperature;BME280_humidity;BME280_pressure;Samples;Min_cycle;Max_cycle;Signal;HPM_P1;HPM_P2
2021/10/20 00:00:25;;;;;;;;;120.50;116.00;15.30;47.20;;;;;;4862759;29;8900;-66
2021/10/20 00:02:50;;;;;;;;;117.50;113.25;15.30;47.20;;;;;;4862756;29;8805;-66
2021/10/20 00:05:17;;;;;;;;;125.25;122.25;15.20;46.90;;;;;;4862432;29;9457;-66
2021/10/20 00:07:47;;;;;;;;;104.25;100.50;15.20;46.50;;;;;;4862394;29;8798;-65
2021/10/20 00:10:15;;;;;;;;;118.50;113.50;15.20;46.40;;;;;;4862425;29;8794;-66
2021/10/20 00:12:42;;;;;;;;;106.00;102.75;15.20;46.20;;;;;;4862311;29;8826;-66
2021/10/20 00:15:11;;;;;;;;;98.25;97.00;15.10;46.10;;;;;;4862408;29;8836;-66
2021/10/20 00:17:37;;;;;;;;;94.00;91.25;15.10;46.20;;;;;;4861962;29;8928;-65
2021/10/20 00:20:08;;;;;;;;;98.00;95.50;15.10;46.20;;;;;;4862329;29;8904;-65
2021/10/20 00:22:35;;;;;;;;;91.25;89.25;15.00;46.00;;;;;;4862915;29;8874;-65
2021/10/20 00:25:01;;;;;;;;;99.25;97.00;14.90;46.00;;;;;;4862465;29;9654;-65
2021/10/20 00:27:28;;;;;;;;;93.50;91.75;14.80;46.20;;;;;;4862479;29;8801;-66
2021/10/20 00:29:54;;;;;;;;;84.00;76.00;14.90;46.20;;;;;;4862156;29;8816;-67
2021/10/20 00:32:20;;;;;;;;;83.50;74.25;14.80;46.10;;;;;;4862100;29;8821;-66
2021/10/20 00:34:47;;;;;;;;;82.50;75.00;14.80;46.00;;;;;;4862138;29;8778;-65
2021/10/20 00:37:12;;;;;;;;;88.25;84.75;14.80;46.10;;;;;;4862121;29;8880;-66
2021/10/20 00:39:38;;;;;;;;;86.25;75.75;14.80;46.10;;;;;;4862309;29;8912;-66
2021/10/20 00:42:04;;;;;;;;;93.25;92.75;14.70;46.30;;;;;;4862244;29;8797;-65
2021/10/20 00:44:47;;;;;;;;;102.00;97.75;14.70;46.20;;;;;;4862216;29;8818;-66
2021/10/20 00:47:13;;;;;;;;;89.00;84.75;14.70;46.40;;;;;;4862062;29;8892;-66
2021/10/20 00:49:38;;;;;;;;;89.25;87.50;14.70;46.40;;;;;;4861981;29;9002;-66
2021/10/20 00:52:04;;;;;;;;;88.25;86.50;14.60;46.30;;;;;;4862284;29;8817;-65
2021/10/20 00:54:30;;;;;;;;;87.25;83.25;14.60;46.60;;;;;;4862741;29;8805;-65
2021/10/20 00:56:56;;;;;;;;;88.00;84.25;14.60;46.70;;;;;;4868190;29;8868;-65
2021/10/20 00:59:22;;;;;;;;;88.25;83.50;14.60;46.70;;;;;;4868238;29;8832;-66
2021/10/20 01:01:48;;;;;;;;;84.25;76.25;14.50;46.80;;;;;;4867980;29;9480;-66
2021/10/20 01:04:13;;;;;;;;;89.50;81.50;14.50;46.90;;;;;;4867943;29;8824;-66
2021/10/20 01:06:39;;;;;;;;;84.75;77.75;14.50;47.00;;;;;;4867973;29;8816;-66
2021/10/20 01:09:05;;;;;;;;;82.75;75.00;14.40;47.20;;;;;;4868170;29;8829;-66
2021/10/20 01:11:31;;;;;;;;;84.50;78.75;14.50;47.00;;;;;;4867774;29;8818;-65
2021/10/20 01:13:57;;;;;;;;;96.50;95.25;14.50;47.10;;;;;;4868169;29;8794;-65
2021/10/20 01:16:22;;;;;;;;;91.75;89.25;14.50;47.20;;;;;;4867708;29;8821;-66
2021/10/20 01:18:49;;;;;;;;;88.00;79.00;14.40;47.30;;;;;;4867830;29;8786;-67
2021/10/20 01:21:20;;;;;;;;;88.00;83.50;14.50;47.20;;;;;;4867866;29;8832;-66
2021/10/20 01:23:47;;;;;;;;;93.00;86.50;14.40;47.20;;;;;;4867818;29;8805;-66
2021/10/20 01:26:14;;;;;;;;;92.50;91.75;14.40;47.40;;;;;;4867972;29;8797;-65
2021/10/20 01:28:40;;;;;;;;;89.00;86.25;14.40;47.40;;;;;;4867746;29;8818;-66
2021/10/20 01:31:05;;;;;;;;;98.50;97.00;14.40;47.40;;;;;;4867808;29;8833;-67
2021/10/20 01:33:31;;;;;;;;;97.50;95.75;14.40;47.30;;;;;;4867891;29;8797;-66
2021/10/20 01:35:57;;;;;;;;;92.00;87.75;14.40;47.30;;;;;;4867658;29;8833;-68
2021/10/20 01:38:23;;;;;;;;;90.75;87.25;14.40;47.20;;;;;;4867724;29;8821;-67
2021/10/20 01:40:49;;;;;;;;;90.25;87.25;14.40;47.40;;;;;;4867836;29;8809;-66
2021/10/20 01:43:14;;;;;;;;;95.00;93.50;14.40;47.60;;;;;;4867449;29;8798;-67
2021/10/20 01:45:40;;;;;;;;;96.50;95.75;14.50;47.60;;;;;;4867807;29;8801;-67
2021/10/20 01:48:06;;;;;;;;;102.50;97.00;14.40;47.40;;;;;;4867607;29;9552;-68
2021/10/20 01:50:32;;;;;;;;;99.25;96.50;14.40;47.30;;;;;;4867729;29;8824;-69
2021/10/20 01:52:57;;;;;;;;;89.25;86.25;14.40;47.60;;;;;;4867844;29;8889;-67
2021/10/20 01:55:23;;;;;;;;;98.25;92.50;14.40;47.50;;;;;;4867557;29;8940;-69
2021/10/20 01:57:49;;;;;;;;;90.75;89.25;14.40;47.50;;;;;;4867534;29;8940;-66
2021/10/20 02:00:15;;;;;;;;;89.25;86.25;14.30;47.60;;;;;;4867642;29;8789;-66
2021/10/20 02:02:42;;;;;;;;;95.75;94.00;14.30;47.70;;;;;;4867818;29;8773;-69
2021/10/20 02:05:09;;;;;;;;;90.50;88.75;14.30;48.10;;;;;;4867517;29;8869;-66
2021/10/20 02:07:35;;;;;;;;;89.00;87.75;14.40;48.30;;;;;;4865008;29;8828;-68
2021/10/20 02:10:04;;;;;;;;;85.25;76.75;14.30;48.30;;;;;;4864582;29;8798;-68
2021/10/20 02:12:30;;;;;;;;;75.00;61.00;14.30;48.50;;;;;;4864409;29;8850;-67
2021/10/20 02:14:56;;;;;;;;;87.00;80.50;14.20;48.60;;;;;;4864689;29;8876;-68
2021/10/20 02:17:21;;;;;;;;;89.00;84.75;14.30;48.30;;;;;;4864369;29;8844;-67
2021/10/20 02:19:47;;;;;;;;;98.50;97.00;14.20;48.30;;;;;;4864375;29;8985;-66
2021/10/20 02:22:13;;;;;;;;;122.25;114.75;14.20;48.30;;;;;;4864712;29;8825;-66
2021/10/20 02:24:39;;;;;;;;;119.75;117.25;14.20;48.30;;;;;;4864526;29;8770;-67
2021/10/20 02:27:05;;;;;;;;;116.50;112.00;14.20;48.40;;;;;;4864269;29;8812;-66
2021/10/20 02:29:31;;;;;;;;;109.50;107.75;14.10;49.10;;;;;;4864263;29;8790;-65
2021/10/20 02:31:58;;;;;;;;;105.00;103.75;14.10;48.00;;;;;;4864386;29;8865;-66
2021/10/20 02:34:24;;;;;;;;;105.00;101.75;14.10;47.90;;;;;;4864070;29;8873;-67
2021/10/20 02:36:50;;;;;;;;;100.00;99.50;14.00;47.60;;;;;;4864058;29;8829;-68
2021/10/20 02:39:16;;;;;;;;;102.25;98.25;13.90;47.80;;;;;;4864261;29;8782;-66
2021/10/20 02:41:42;;;;;;;;;92.00;88.75;14.00;47.60;;;;;;4864056;29;8796;-66
2021/10/20 02:44:08;;;;;;;;;94.75;93.50;14.00;47.70;;;;;;4863989;29;8805;-66
2021/10/20 02:46:35;;;;;;;;;91.50;90.50;13.90;47.50;;;;;;4863911;29;8880;-65
2021/10/20 02:49:01;;;;;;;;;88.00;83.00;13.90;47.60;;;;;;4864107;29;8801;-66
2021/10/20 02:51:29;;;;;;;;;92.50;90.25;13.80;47.60;;;;;;4863926;29;8841;-67
2021/10/20 02:53:57;;;;;;;;;82.00;74.00;13.90;47.70;;;;;;4864146;29;8896;-66
2021/10/20 02:56:23;;;;;;;;;84.50;75.00;13.80;48.00;;;;;;4863706;29;8851;-66
2021/10/20 02:58:49;;;;;;;;;85.25;76.50;13.80;48.30;;;;;;4863719;29;8786;-66
2021/10/20 03:01:14;;;;;;;;;81.50;71.75;13.80;49.50;;;;;;4863645;29;8822;-66
2021/10/20 03:03:40;;;;;;;;;84.25;74.25;13.70;48.80;;;;;;4863631;29;8801;-66
2021/10/20 03:06:06;;;;;;;;;84.50;77.00;13.70;49.00;;;;;;4863807;29;8865;-66
2021/10/20 03:08:32;;;;;;;;;84.75;73.00;13.60;49.00;;;;;;4863505;29;8789;-67
2021/10/20 03:10:58;;;;;;;;;86.00;77.50;13.60;49.20;;;;;;4863455;29;9001;-68
2021/10/20 03:13:24;;;;;;;;;87.00;81.50;13.60;49.30;;;;;;4863236;29;8868;-65
2021/10/20 03:15:49;;;;;;;;;85.00;75.25;13.60;49.40;;;;;;4863377;29;8844;-67
2021/10/20 03:18:15;;;;;;;;;86.00;76.75;13.60;49.20;;;;;;4862807;29;8840;-65
2021/10/20 03:20:41;;;;;;;;;81.75;70.75;13.70;49.10;;;;;;4863339;29;8829;-66
2021/10/20 03:23:07;;;;;;;;;86.25;79.50;13.70;49.10;;;;;;4863235;29;8927;-67
2021/10/20 03:25:32;;;;;;;;;89.00;83.50;13.70;49.10;;;;;;4863167;29;8794;-67
2021/10/20 03:27:58;;;;;;;;;82.75;72.75;13.70;49.00;;;;;;4863186;29;8793;-67
2021/10/20 03:30:24;;;;;;;;;82.50;71.00;13.60;49.00;;;;;;4863127;29;8816;-68
2021/10/20 03:32:50;;;;;;;;;83.75;76.25;13.70;48.90;;;;;;4863053;29;8817;-66
2021/10/20 03:35:17;;;;;;;;;91.50;83.25;13.60;48.70;;;;;;4863163;29;8793;-67
2021/10/20 03:37:43;;;;;;;;;82.25;71.00;13.60;49.00;;;;;;4862892;29;8827;-66
2021/10/20 03:40:10;;;;;;;;;83.00;73.75;13.60;49.30;;;;;;4862995;29;8794;-65
2021/10/20 03:42:36;;;;;;;;;85.50;75.75;13.60;49.20;;;;;;4863003;29;8777;-67
2021/10/20 03:45:04;;;;;;;;;71.25;58.75;13.50;49.20;;;;;;4863099;29;8813;-66
2021/10/20 03:47:30;;;;;;;;;80.75;70.75;13.50;49.40;;;;;;4862525;29;8813;-67
2021/10/20 03:49:55;;;;;;;;;85.50;76.25;13.60;49.30;;;;;;4862959;29;8786;-66
2021/10/20 03:52:21;;;;;;;;;87.00;79.75;13.60;49.20;;;;;;4863031;29;8833;-66
2021/10/20 03:54:47;;;;;;;;;93.00;90.25;13.50;49.00;;;;;;4862765;29;8820;-66
2021/10/20 03:57:14;;;;;;;;;101.50;93.25;13.50;48.90;;;;;;4862839;29;8833;-67
2021/10/20 03:59:42;;;;;;;;;97.50;95.00;13.40;49.00;;;;;;4862692;29;8917;-68
2021/10/20 04:02:08;;;;;;;;;96.50;94.75;13.40;49.10;;;;;;4862626;29;8805;-67
2021/10/20 04:04:34;;;;;;;;;91.00;86.00;13.40;49.20;;;;;;4862784;29;8900;-67
2021/10/20 04:06:59;;;;;;;;;82.25;71.75;13.40;49.10;;;;;;4862488;29;8889;-66
2021/10/20 04:09:25;;;;;;;;;95.00;93.25;13.20;49.40;;;;;;4862406;29;8810;-66
2021/10/20 04:11:51;;;;;;;;;100.75;99.25;13.30;49.40;;;;;;4862275;29;8853;-66
2021/10/20 04:14:17;;;;;;;;;101.00;99.25;13.10;49.40;;;;;;4862229;29;8888;-66
2021/10/20 04:16:42;;;;;;;;;90.25;82.25;13.20;49.40;;;;;;4862248;29;8817;-65
2021/10/20 04:19:08;;;;;;;;;89.50;82.25;13.20;49.30;;;;;;4862279;29;8806;-67
2021/10/20 04:21:34;;;;;;;;;86.75;77.00;13.30;49.40;;;;;;4862479;29;8837;-66
2021/10/20 04:24:00;;;;;;;;;89.00;80.50;13.20;49.20;;;;;;4862221;29;8821;-65
2021/10/20 04:26:25;;;;;;;;;88.25;82.75;13.30;49.10;;;;;;4862242;29;8824;-67
2021/10/20 04:28:51;;;;;;;;;83.00;73.50;13.20;49.00;;;;;;4861808;29;8904;-68
2021/10/20 04:31:17;;;;;;;;;86.00;75.75;13.20;49.10;;;;;;4861743;29;8782;-66
2021/10/20 04:33:43;;;;;;;;;85.50;75.00;12.90;49.70;;;;;;4862328;29;8798;-66
2021/10/20 04:36:09;;;;;;;;;83.75;75.25;12.80;50.50;;;;;;4862251;29;8797;-65
2021/10/20 04:38:34;;;;;;;;;81.00;70.25;12.90;50.20;;;;;;4861708;29;8823;-65
2021/10/20 04:41:00;;;;;;;;;80.75;69.75;13.00;50.00;;;;;;4861803;29;8817;-66
2021/10/20 04:43:26;;;;;;;;;82.25;72.00;12.90;49.90;;;;;;4861958;29;8774;-65
2021/10/20 04:45:53;;;;;;;;;77.50;63.25;13.00;50.00;;;;;;4861957;29;9513;-66
2021/10/20 04:48:20;;;;;;;;;77.75;65.00;12.90;50.10;;;;;;4862264;29;8824;-68
2021/10/20 04:50:45;;;;;;;;;85.00;76.25;12.90;50.00;;;;;;4862127;29;9531;-66
2021/10/20 04:53:11;;;;;;;;;83.00;74.25;12.90;50.30;;;;;;4861675;29;8802;-66
2021/10/20 04:55:37;;;;;;;;;87.75;80.00;12.90;50.50;;;;;;4861817;29;8813;-66
2021/10/20 04:58:07;;;;;;;;;86.00;78.00;12.80;50.40;;;;;;4862083;29;8842;-66
2021/10/20 05:00:34;;;;;;;;;84.50;72.00;12.70;50.80;;;;;;4861740;29;8801;-65
2021/10/20 05:03:00;;;;;;;;;91.50;84.75;12.70;50.60;;;;;;4861643;29;8861;-66
2021/10/20 05:05:27;;;;;;;;;89.00;78.75;12.70;50.60;;;;;;4861072;29;8805;-66
2021/10/20 05:11:28;;;;;;;;;95.00;91.00;12.80;50.70;;;;;;4861517;29;8786;-63
2021/10/20 05:13:54;;;;;;;;;121.75;115.50;12.80;50.90;;;;;;4861188;29;8893;-67
2021/10/20 05:16:20;;;;;;;;;104.00;103.00;12.70;51.00;;;;;;4861237;29;8943;-66
2021/10/20 05:18:46;;;;;;;;;100.25;98.50;12.80;51.00;;;;;;4860696;29;8786;-64
2021/10/20 05:21:12;;;;;;;;;94.25;89.75;12.80;51.00;;;;;;4861387;29;8825;-65
2021/10/20 05:23:37;;;;;;;;;81.75;68.50;12.80;50.90;;;;;;4861671;29;8809;-64
2021/10/20 05:26:03;;;;;;;;;96.25;95.75;12.80;50.90;;;;;;4861771;29;8805;-66
2021/10/20 05:28:29;;;;;;;;;90.50;84.75;12.70;50.90;;;;;;4861740;29;8814;-66
2021/10/20 05:30:55;;;;;;;;;87.00;80.00;12.60;50.80;;;;;;4861091;29;8894;-66
2021/10/20 05:33:20;;;;;;;;;98.25;96.75;12.50;50.90;;;;;;4861429;29;8804;-67
2021/10/20 05:35:47;;;;;;;;;94.75;94.00;12.50;51.00;;;;;;4860555;29;8801;-63
2021/10/20 05:38:13;;;;;;;;;91.00;82.50;12.60;50.80;;;;;;4860517;29;8825;-67
2021/10/20 05:40:39;;;;;;;;;91.00;83.50;12.50;51.10;;;;;;4861659;29;8814;-63
2021/10/20 05:43:04;;;;;;;;;89.50;82.50;12.60;51.10;;;;;;4864644;29;8833;-62
2021/10/20 05:45:30;;;;;;;;;90.25;86.75;12.70;51.10;;;;;;4864929;29;8849;-64
2021/10/20 05:47:56;;;;;;;;;91.50;86.50;12.70;51.10;;;;;;4864872;29;8905;-63
2021/10/20 05:50:22;;;;;;;;;94.25;88.50;12.80;51.10;;;;;;4864681;29;8805;-64
2021/10/20 05:52:48;;;;;;;;;84.50;75.75;12.70;50.90;;;;;;4864919;29;8794;-64
2021/10/20 05:55:14;;;;;;;;;84.25;69.75;12.60;51.10;;;;;;4864754;29;8808;-64
2021/10/20 05:57:40;;;;;;;;;108.75;103.25;12.60;51.20;;;;;;4864754;29;9498;-65
2021/10/20 06:00:11;;;;;;;;;126.00;124.00;12.60;50.90;;;;;;4864847;29;8900;-59
2021/10/20 06:02:38;;;;;;;;;125.25;122.50;12.70;50.90;;;;;;4864739;29;9491;-61
2021/10/20 06:05:04;;;;;;;;;123.50;120.50;12.80;50.50;;;;;;4864559;29;8770;-61
2021/10/20 06:07:30;;;;;;;;;128.50;122.00;12.80;50.40;;;;;;4864430;29;8797;-61
2021/10/20 06:09:56;;;;;;;;;115.25;112.75;12.90;51.10;;;;;;4864571;29;8801;-60
2021/10/20 06:12:22;;;;;;;;;116.75;114.50;12.80;50.00;;;;;;4864171;29;9562;-61
2021/10/20 06:14:49;;;;;;;;;121.75;119.00;12.70;50.20;;;;;;4864436;29;8789;-60
2021/10/20 06:17:15;;;;;;;;;127.75;123.25;12.60;50.50;;;;;;4864284;29;8863;-61
2021/10/20 06:19:41;;;;;;;;;126.50;122.50;12.70;50.30;;;;;;4864205;29;8783;-61
2021/10/20 06:22:07;;;;;;;;;123.50;119.75;12.70;50.40;;;;;;4864328;29;8825;-61
2021/10/20 06:24:33;;;;;;;;;125.00;118.75;12.90;50.10;;;;;;4863918;29;8828;-61
2021/10/20 06:26:58;;;;;;;;;106.50;106.25;12.90;50.00;;;;;;4864089;29;8814;-61
2021/10/20 06:29:26;;;;;;;;;108.25;107.25;13.00;49.60;;;;;;4864072;29;8824;-62
2021/10/20 06:31:53;;;;;;;;;94.50;93.00;13.20;49.30;;;;;;4863924;29;8801;-61
2021/10/20 06:34:19;;;;;;;;;103.50;102.50;13.20;49.10;;;;;;4863763;29;8817;-62
2021/10/20 06:36:44;;;;;;;;;102.75;101.25;13.30;49.00;;;;;;4863683;29;8829;-61
2021/10/20 06:39:10;;;;;;;;;93.75;92.25;13.30;49.10;;;;;;4863949;29;8829;-62
2021/10/20 06:41:36;;;;;;;;;101.00;99.75;13.40;49.20;;;;;;4863838;29;9274;-61
2021/10/20 06:44:02;;;;;;;;;109.00;108.00;13.40;49.10;;;;;;4863953;29;8816;-62
2021/10/20 06:46:28;;;;;;;;;118.00;116.25;13.50;48.80;;;;;;4863770;29;8819;-62
2021/10/20 06:48:54;;;;;;;;;111.50;110.75;13.60;48.70;;;;;;4863934;29;8806;-62
2021/10/20 06:51:20;;;;;;;;;120.25;117.75;13.70;48.40;;;;;;4863710;29;8853;-62
2021/10/20 06:53:46;;;;;;;;;107.25;103.50;13.70;48.90;;;;;;4862915;29;9596;-61
2021/10/20 06:56:11;;;;;;;;;100.00;98.00;13.60;49.40;;;;;;4863540;29;8896;-62
2021/10/20 06:58:37;;;;;;;;;107.25;104.75;13.70;49.70;;;;;;4863509;29;8801;-62
2021/10/20 07:01:04;;;;;;;;;89.25;83.25;13.70;49.70;;;;;;4863131;29;8892;-61
2021/10/20 07:03:29;;;;;;;;;101.25;98.00;13.60;49.70;;;;;;4863522;29;8805;-62
2021/10/20 07:05:55;;;;;;;;;98.25;98.25;13.80;49.70;;;;;;4862734;29;8816;-62
2021/10/20 07:08:21;;;;;;;;;112.75;111.25;13.90;50.60;;;;;;4863126;29;8896;-61
2021/10/20 07:10:47;;;;;;;;;115.50;112.00;14.00;49.40;;;;;;4863366;29;8916;-62
2021/10/20 07:13:14;;;;;;;;;120.25;118.75;14.10;49.40;;;;;;4863151;29;8833;-62
2021/10/20 07:15:40;;;;;;;;;120.75;119.75;14.10;49.40;;;;;;4863378;29;8817;-62
2021/10/20 07:18:05;;;;;;;;;124.50;121.25;14.20;49.40;;;;;;4863085;29;8821;-63
2021/10/20 07:20:31;;;;;;;;;114.75;113.00;14.20;49.50;;;;;;4863125;29;8802;-63
2021/10/20 07:22:57;;;;;;;;;117.50;111.50;14.30;49.60;;;;;;4863062;29;8842;-62
2021/10/20 07:25:23;;;;;;;;;109.25;108.25;14.40;49.50;;;;;;4863300;29;8852;-62
2021/10/20 07:27:49;;;;;;;;;118.50;114.25;14.40;49.90;;;;;;4863112;29;8797;-61
2021/10/20 07:30:16;;;;;;;;;110.75;106.75;14.50;49.60;;;;;;4863048;29;8821;-62
2021/10/20 07:32:43;;;;;;;;;114.25;112.50;14.70;49.60;;;;;;4863008;29;8805;-62
2021/10/20 07:35:10;;;;;;;;;108.50;107.25;14.80;49.30;;;;;;4862869;29;8825;-62
2021/10/20 07:37:37;;;;;;;;;110.50;109.00;14.90;49.10;;;;;;4862787;29;8828;-62
2021/10/20 07:40:07;;;;;;;;;110.00;108.50;15.00;49.20;;;;;;4863206;29;8805;-62
2021/10/20 07:42:36;;;;;;;;;108.75;106.75;15.10;49.20;;;;;;4862773;29;8798;-63
2021/10/20 07:45:03;;;;;;;;;105.25;104.00;15.20;49.40;;;;;;4862732;29;8817;-62
2021/10/20 07:47:29;;;;;;;;;105.00;102.50;15.30;48.90;;;;;;4862959;29;9591;-63
2021/10/20 07:49:55;;;;;;;;;107.75;106.25;15.40;48.60;;;;;;4862752;29;8793;-63
2021/10/20 07:52:24;;;;;;;;;113.00;112.75;15.50;48.60;;;;;;4862476;29;8912;-63
2021/10/20 07:54:50;;;;;;;;;115.75;113.75;15.50;48.40;;;;;;4862515;29;9487;-62
2021/10/20 07:57:16;;;;;;;;;107.75;105.50;15.60;48.90;;;;;;4862318;29;9453;-62
2021/10/20 07:59:42;;;;;;;;;121.00;117.25;15.70;48.70;;;;;;4862325;29;8869;-62
2021/10/20 08:02:08;;;;;;;;;114.25;112.50;15.70;49.10;;;;;;4862656;29;8836;-62
2021/10/20 08:04:34;;;;;;;;;100.25;99.50;15.70;49.20;;;;;;4862368;29;9522;-62
2021/10/20 08:06:59;;;;;;;;;101.25;100.00;15.90;48.50;;;;;;4861834;29;9473;-63
2021/10/20 08:09:25;;;;;;;;;102.75;102.25;16.10;48.10;;;;;;4862599;29;8817;-62
2021/10/20 08:11:51;;;;;;;;;115.50;109.50;16.20;48.60;;;;;;4862248;29;9805;-62
2021/10/20 08:14:17;;;;;;;;;114.00;113.25;16.10;48.60;;;;;;4862231;29;8785;-61
2021/10/20 08:16:42;;;;;;;;;100.00;98.75;16.10;49.10;;;;;;4862139;29;9004;-63
2021/10/20 08:19:08;;;;;;;;;107.75;107.75;16.30;48.90;;;;;;4862080;29;8901;-62
2021/10/20 08:21:34;;;;;;;;;104.50;102.50;16.40;49.30;;;;;;4862403;29;8830;-62
2021/10/20 08:24:00;;;;;;;;;105.75;103.25;16.40;49.20;;;;;;4862088;29;8810;-62
2021/10/20 08:26:25;;;;;;;;;103.75;103.00;16.60;48.70;;;;;;4861777;29;8806;-62
2021/10/20 08:28:51;;;;;;;;;106.50;100.75;16.70;48.70;;;;;;4862041;29;8856;-60
2021/10/20 08:31:17;;;;;;;;;98.25;95.75;16.80;48.60;;;;;;4862100;29;9120;-63
2021/10/20 08:33:43;;;;;;;;;102.50;100.50;16.90;48.20;;;;;;4861916;29;8805;-61
2021/10/20 08:36:09;;;;;;;;;94.00;91.25;17.00;48.00;;;;;;4861814;29;8782;-61
2021/10/20 08:38:35;;;;;;;;;87.00;83.75;17.10;48.00;;;;;;4861851;29;9461;-60
2021/10/20 08:41:01;;;;;;;;;97.50;97.50;17.10;48.40;;;;;;4861412;29;8823;-61
2021/10/20 08:43:27;;;;;;;;;110.50;104.50;17.10;48.60;;;;;;4861334;29;8797;-62
2021/10/20 08:45:53;;;;;;;;;98.25;96.25;17.20;47.90;;;;;;4861034;29;8818;-61
2021/10/20 08:48:21;;;;;;;;;108.50;106.75;17.30;49.60;;;;;;4861682;29;8797;-60
2021/10/20 08:50:58;;;;;;;;;106.25;103.75;17.30;48.70;;;;;;4861781;29;8825;-60
2021/10/20 08:53:24;;;;;;;;;97.25;95.25;17.30;48.60;;;;;;4861911;29;9516;-60
2021/10/20 08:55:51;;;;;;;;;93.50;93.25;17.40;49.00;;;;;;4861988;29;8825;-61
2021/10/20 08:58:18;;;;;;;;;93.00;88.25;17.50;48.30;;;;;;4861481;29;8829;-61
2021/10/20 09:00:44;;;;;;;;;87.50;81.50;17.70;48.20;;;;;;4861923;29;8816;-60
2021/10/20 09:03:11;;;;;;;;;85.75;81.75;17.70;48.50;;;;;;4861741;29;8798;-60
2021/10/20 09:05:37;;;;;;;;;83.75;82.50;17.90;47.70;;;;;;4861937;29;9527;-61
2021/10/20 09:08:03;;;;;;;;;84.25;83.75;18.10;47.30;;;;;;4861193;29;8801;-61
2021/10/20 09:10:30;;;;;;;;;85.75;85.50;18.20;46.80;;;;;;4860148;29;8801;-61
2021/10/20 09:12:58;;;;;;;;;80.25;77.25;18.40;46.70;;;;;;4860438;29;9122;-62
2021/10/20 09:15:27;;;;;;;;;80.75;77.00;18.40;47.20;;;;;;4861409;29;8801;-61
2021/10/20 09:18:03;;;;;;;;;83.00;74.50;18.40;47.50;;;;;;4864570;29;8831;-61
2021/10/20 09:20:41;;;;;;;;;75.75;66.75;18.50;46.60;;;;;;4864157;29;8777;-61
2021/10/20 09:23:21;;;;;;;;;82.50;77.25;18.70;46.50;;;;;;4864974;29;8793;-61
2021/10/20 09:25:48;;;;;;;;;75.50;69.00;18.70;46.60;;;;;;4865223;29;8797;-62
2021/10/20 09:28:33;;;;;;;;;73.25;65.25;18.80;46.40;;;;;;4865226;29;8785;-61
2021/10/20 09:31:02;;;;;;;;;78.00;72.00;18.90;46.60;;;;;;4865186;29;8797;-62
2021/10/20 09:33:34;;;;;;;;;79.00;71.25;19.00;46.50;;;;;;4865376;29;8793;-62
2021/10/20 09:36:08;;;;;;;;;73.25;62.25;19.10;46.70;;;;;;4864113;29;8933;-63
2021/10/20 09:38:36;;;;;;;;;74.50;68.00;19.20;47.40;;;;;;4864813;29;8825;-61
2021/10/20 09:41:06;;;;;;;;;73.00;65.25;19.30;46.80;;;;;;4864200;29;8790;-61
2021/10/20 09:43:32;;;;;;;;;79.50;70.50;19.40;46.70;;;;;;4863701;29;8823;-61
2021/10/20 09:46:00;;;;;;;;;71.50;59.50;19.40;46.60;;;;;;4864823;29;8988;-62
2021/10/20 09:48:27;;;;;;;;;73.00;63.25;19.50;46.60;;;;;;4864679;29;8828;-62
2021/10/20 09:50:54;;;;;;;;;73.00;60.75;19.70;46.70;;;;;;4864478;29;8817;-61
2021/10/20 09:53:20;;;;;;;;;69.50;57.00;19.80;46.60;;;;;;4864330;29;8821;-62
2021/10/20 09:55:46;;;;;;;;;70.00;61.25;20.00;46.00;;;;;;4864402;29;8809;-62
2021/10/20 09:58:14;;;;;;;;;65.25;52.25;20.20;46.10;;;;;;4864673;29;8829;-60
2021/10/20 10:00:40;;;;;;;;;62.50;51.75;20.40;45.00;;;;;;4864963;29;9602;-60
2021/10/20 10:03:07;;;;;;;;;62.75;51.00;20.60;43.90;;;;;;4864899;29;8805;-60
2021/10/20 10:05:33;;;;;;;;;68.50;56.25;20.90;43.10;;;;;;4864833;29;8816;-60
2021/10/20 10:08:01;;;;;;;;;62.25;52.00;21.20;42.70;;;;;;4864606;29;8816;-61
2021/10/20 10:10:27;;;;;;;;;63.25;52.50;21.70;41.70;;;;;;4864297;29;8805;-60
2021/10/20 10:13:16;;;;;;;;;64.50;53.50;21.90;40.10;;;;;;4863467;29;9523;-61
2021/10/20 10:15:43;;;;;;;;;62.25;52.00;22.20;40.70;;;;;;4862791;29;8811;-61
2021/10/20 10:18:10;;;;;;;;;57.75;49.25;22.50;39.70;;;;;;4863275;29;8809;-62
2021/10/20 10:20:41;;;;;;;;;57.75;49.00;23.00;38.90;;;;;;4863515;29;8813;-61
2021/10/20 10:23:21;;;;;;;;;58.00;48.75;23.40;38.10;;;;;;4864144;29;8797;-61
2021/10/20 10:26:07;;;;;;;;;57.50;48.75;23.50;37.20;;;;;;4864475;29;8920;-61
2021/10/20 10:28:35;;;;;;;;;60.75;49.50;23.80;36.80;;;;;;4862758;29;8805;-61
2021/10/20 10:31:11;;;;;;;;;54.75;46.25;24.30;36.30;;;;;;4864327;29;8869;-61
2021/10/20 10:33:52;;;;;;;;;57.25;48.50;24.90;35.50;;;;;;4864524;29;8816;-61
2021/10/20 10:36:22;;;;;;;;;51.00;43.25;25.40;34.00;;;;;;4864102;29;8808;-61
2021/10/20 10:38:59;;;;;;;;;52.50;45.00;25.50;32.40;;;;;;4864028;29;8890;-61
2021/10/20 10:41:26;;;;;;;;;53.75;45.25;25.60;32.60;;;;;;4864036;29;8793;-61
2021/10/20 10:44:04;;;;;;;;;52.67;45.67;26.10;32.70;;;;;;4863973;29;8785;-61
2021/10/20 10:46:34;;;;;;;;;51.33;43.67;26.80;32.20;;;;;;4863952;29;8813;-61
2021/10/20 10:49:20;;;;;;;;;51.67;44.67;27.30;30.60;;;;;;4863551;29;8805;-61
2021/10/20 10:52:02;;;;;;;;;50.67;43.67;27.80;29.90;;;;;;4863569;29;8821;-61
2021/10/20 10:54:38;;;;;;;;;50.67;43.33;28.20;28.90;;;;;;4863782;29;8925;-61
2021/10/20 10:57:11;;;;;;;;;48.67;41.67;28.60;28.50;;;;;;4863084;29;8828;-61
2021/10/20 10:59:36;;;;;;;;;44.00;38.67;29.10;27.70;;;;;;4863272;29;8797;-61
2021/10/20 11:02:02;;;;;;;;;47.67;41.33;29.40;27.40;;;;;;4863009;29;8809;-62
2021/10/20 11:04:35;;;;;;;;;48.00;41.33;29.80;26.30;;;;;;4863215;29;8813;-65
2021/10/20 11:07:03;;;;;;;;;46.33;40.33;29.70;26.00;;;;;;4863171;29;9496;-62
2021/10/20 11:09:34;;;;;;;;;47.33;41.33;29.80;26.10;;;;;;4863419;29;8805;-61
2021/10/20 11:12:04;;;;;;;;;48.33;41.67;29.90;26.30;;;;;;4863018;29;9493;-64
2021/10/20 11:14:31;;;;;;;;;45.67;39.67;30.70;25.90;;;;;;4863115;29;9487;-61
2021/10/20 11:17:00;;;;;;;;;41.00;37.00;31.00;25.40;;;;;;4863317;29;8813;-61
2021/10/20 11:19:27;;;;;;;;;42.33;37.33;31.60;24.80;;;;;;4863188;29;8822;-61
2021/10/20 11:21:53;;;;;;;;;42.67;37.67;32.10;24.50;;;;;;4863262;29;8821;-64
2021/10/20 11:24:19;;;;;;;;;41.33;36.67;32.40;23.50;;;;;;4863147;29;8793;-61
2021/10/20 11:26:50;;;;;;;;;48.67;40.67;32.70;23.90;;;;;;4863314;29;8805;-61
2021/10/20 11:29:16;;;;;;;;;41.67;36.67;33.10;23.50;;;;;;4863038;29;8797;-61
2021/10/20 11:31:53;;;;;;;;;42.33;37.33;33.50;23.00;;;;;;4862982;29;8839;-61
2021/10/20 11:34:21;;;;;;;;;36.33;34.33;33.30;22.50;;;;;;4863024;29;8797;-61
2021/10/20 11:36:47;;;;;;;;;42.00;37.00;33.80;22.20;;;;;;4862632;29;8824;-64
2021/10/20 11:39:14;;;;;;;;;40.00;36.00;34.20;22.10;;;;;;4862355;29;8797;-61
2021/10/20 11:41:55;;;;;;;;;31.00;30.33;34.60;21.60;;;;;;4862933;29;8794;-61
2021/10/20 11:44:35;;;;;;;;;34.33;33.33;35.10;21.20;;;;;;4862937;29;9776;-62
2021/10/20 11:47:04;;;;;;;;;38.33;35.00;35.50;20.70;;;;;;4862983;29;8786;-61
2021/10/20 11:49:31;;;;;;;;;38.00;35.00;36.00;20.60;;;;;;4862685;29;8797;-62
2021/10/20 11:51:57;;;;;;;;;41.00;36.00;36.10;20.00;;;;;;4862943;29;9465;-62
2021/10/20 11:54:25;;;;;;;;;39.67;35.67;36.20;20.30;;;;;;4862656;29;8869;-61
2021/10/20 11:56:59;;;;;;;;;38.00;34.67;36.20;19.90;;;;;;4862453;29;8837;-62
2021/10/20 11:59:27;;;;;;;;;38.00;35.00;36.60;20.00;;;;;;4862566;29;8797;-61
2021/10/20 12:01:53;;;;;;;;;36.67;33.67;37.00;19.70;;;;;;4862524;29;9482;-61
2021/10/20 12:04:21;;;;;;;;;36.33;34.33;37.20;19.10;;;;;;4862313;29;8908;-62
2021/10/20 12:06:49;;;;;;;;;35.33;33.00;37.30;18.90;;;;;;4862194;29;8806;-62
2021/10/20 12:09:16;;;;;;;;;44.67;38.00;37.40;18.90;;;;;;4862261;29;9430;-61
2021/10/20 12:11:42;;;;;;;;;37.00;34.00;37.70;18.90;;;;;;4862104;29;8826;-61
2021/10/20 12:14:12;;;;;;;;;35.67;33.00;38.00;18.90;;;;;;4862316;29;8805;-62
2021/10/20 12:16:40;;;;;;;;;34.33;32.33;38.20;18.30;;;;;;4862301;29;8859;-62
2021/10/20 12:19:10;;;;;;;;;35.67;32.67;38.20;18.20;;;;;;4862182;29;8797;-61
2021/10/20 12:21:39;;;;;;;;;39.33;36.00;38.30;18.60;;;;;;4862157;29;8829;-62
2021/10/20 12:24:05;;;;;;;;;38.00;34.00;38.50;18.50;;;;;;4862245;29;8800;-61
2021/10/20 12:26:34;;;;;;;;;34.67;33.00;38.70;18.50;;;;;;4862086;29;8797;-61
2021/10/20 12:29:05;;;;;;;;;34.00;32.00;38.70;17.90;;;;;;4862085;29;8832;-61
2021/10/20 12:31:32;;;;;;;;;33.00;32.00;38.90;17.90;;;;;;4862232;29;8900;-61
2021/10/20 12:33:58;;;;;;;;;38.67;34.67;39.10;17.90;;;;;;4862110;29;8885;-62